PWSweather.com
Personal Weather Stations
Station Observations
YARKER1
Yarker, ON

Yarker, ON

Lat: 44.37, Lon: -76.77

Elevation: 508

Station Type: acurite pro

Latest ConditionsUpdated 3:50:00 AM EST Thursday, Dec 12, 2019
Currently Today's Max Today's Min Today's Average
Temperature 13.3°F-10.4°C 14.6°F-9.7°C 12.2°F-11.0°C 13.6°F-10.2°C
Dew Point 8.4°F-13.1°C 8.9°F-12.8°C 7.4°F-13.7°C 8.0°F-13.3°C
Winds 2.6 mph SW4.2 kmh SW 4.2 mph -6.8 kmh - - 3.3 mph 5.3 kmh
Wind Gusts 3.7 mph6.0 kmh 7.3 mph11.7 kmh - -
Humidity 80% 84% 75% 78%
Pressure 30.63 in1037.3 mb 30.63 in1037.3 mb 30.55 in1034.5 mb -
Hour Temp Dew Point Humidity Winds Wind Gusts Pressure Precip Precip Rate Daily Precip Total
03:50 AM 13.3°F-10.4°C 8.4°F-13.1°C 80% 2.6 mph SW4.2 kmh SW 3.7 mph6.0 kmh 30.63 in1037.3 mb 0.00 in0.0 mm 0.00 in0.0 mm 0.00 in0.0 mm
03:40 AM 13.8°F-10.1°C 8.5°F-13.1°C 79% 3.3 mph SW5.3 kmh SW 5.3 mph8.5 kmh 30.63 in1037.3 mb 0.00 in0.0 mm 0.00 in0.0 mm 0.00 in0.0 mm
03:30 AM 14.2°F-9.9°C 8.7°F-12.9°C 78% 3.4 mph SW5.5 kmh SW 5.3 mph8.5 kmh 30.62 in1036.9 mb 0.00 in0.0 mm 0.00 in0.0 mm 0.00 in0.0 mm
03:20 AM 14.1°F-9.9°C 8.9°F-12.8°C 79% 4.1 mph SW6.6 kmh SW 5.8 mph9.3 kmh 30.62 in1036.9 mb 0.00 in0.0 mm 0.00 in0.0 mm 0.00 in0.0 mm
03:10 AM 13.3°F-10.4°C 8.3°F-13.2°C 80% 3.5 mph SW5.6 kmh SW 5.8 mph9.3 kmh 30.62 in1036.9 mb 0.00 in0.0 mm 0.00 in0.0 mm 0.00 in0.0 mm
03:00 AM 13.0°F-10.6°C 7.9°F-13.4°C 80% 3.3 mph SW5.3 kmh SW 4.7 mph7.6 kmh 30.61 in1036.6 mb 0.00 in0.0 mm 0.00 in0.0 mm 0.00 in0.0 mm
02:50 AM 12.9°F-10.6°C 7.7°F-13.5°C 79% 3.0 mph SW4.8 kmh SW 4.7 mph7.6 kmh 30.61 in1036.6 mb 0.00 in0.0 mm 0.00 in0.0 mm 0.00 in0.0 mm
02:40 AM 13.0°F-10.6°C 7.6°F-13.6°C 78% 3.1 mph SW5.0 kmh SW 6.8 mph10.9 kmh 30.60 in1036.2 mb 0.00 in0.0 mm 0.00 in0.0 mm 0.00 in0.0 mm
02:30 AM 13.1°F-10.5°C 7.6°F-13.6°C 78% 3.5 mph SSW5.6 kmh SSW 4.7 mph7.6 kmh 30.60 in1036.2 mb 0.00 in0.0 mm 0.00 in0.0 mm 0.00 in0.0 mm
02:20 AM 13.1°F-10.5°C 7.5°F-13.6°C 78% 3.1 mph SW5.0 kmh SW 5.3 mph8.5 kmh 30.59 in1035.9 mb 0.00 in0.0 mm 0.00 in0.0 mm 0.00 in0.0 mm
02:10 AM 13.4°F-10.3°C 7.5°F-13.6°C 77% 3.2 mph SW5.1 kmh SW 5.3 mph8.5 kmh 30.59 in1035.9 mb 0.00 in0.0 mm 0.00 in0.0 mm 0.00 in0.0 mm
02:00 AM 13.5°F-10.3°C 7.4°F-13.7°C 76% 3.8 mph SW6.1 kmh SW 6.3 mph10.1 kmh 30.58 in1035.6 mb 0.00 in0.0 mm 0.00 in0.0 mm 0.00 in0.0 mm
01:50 AM 13.8°F-10.1°C 7.6°F-13.6°C 76% 3.9 mph SW6.3 kmh SW 6.3 mph10.1 kmh 30.58 in1035.6 mb 0.00 in0.0 mm 0.00 in0.0 mm 0.00 in0.0 mm
01:40 AM 13.7°F-10.2°C 7.4°F-13.7°C 75% 3.9 mph SW6.3 kmh SW 6.8 mph10.9 kmh 30.58 in1035.6 mb 0.00 in0.0 mm 0.00 in0.0 mm 0.00 in0.0 mm
01:30 AM 13.8°F-10.1°C 7.4°F-13.7°C 75% 4.2 mph SW6.8 kmh SW 6.8 mph10.9 kmh 30.57 in1035.2 mb 0.00 in0.0 mm 0.00 in0.0 mm 0.00 in0.0 mm
01:20 AM 14.0°F-10.0°C 7.6°F-13.6°C 75% 4.1 mph SW6.6 kmh SW 7.3 mph11.7 kmh 30.57 in1035.2 mb 0.00 in0.0 mm 0.00 in0.0 mm 0.00 in0.0 mm
01:10 AM 13.8°F-10.1°C 7.9°F-13.4°C 77% 3.8 mph SSW6.1 kmh SSW 5.8 mph9.3 kmh 30.56 in1034.9 mb 0.00 in0.0 mm 0.00 in0.0 mm 0.00 in0.0 mm
01:00 AM 14.3°F-9.8°C 8.0°F-13.3°C 75% 2.9 mph SW4.7 kmh SW 4.2 mph6.8 kmh 30.55 in1034.5 mb 0.00 in0.0 mm 0.00 in0.0 mm 0.00 in0.0 mm
12:50 AM 14.6°F-9.7°C 8.3°F-13.2°C 76% 3.6 mph SW5.8 kmh SW 5.8 mph9.3 kmh 30.55 in1034.5 mb 0.00 in0.0 mm 0.00 in0.0 mm 0.00 in0.0 mm
12:40 AM 14.3°F-9.8°C 8.4°F-13.1°C 77% 3.5 mph SW5.6 kmh SW 5.3 mph8.5 kmh 30.55 in1034.5 mb 0.00 in0.0 mm 0.00 in0.0 mm 0.00 in0.0 mm
12:30 AM 13.8°F-10.1°C 8.2°F-13.2°C 78% 3.0 mph SW4.8 kmh SW 4.7 mph7.6 kmh 30.55 in1034.5 mb 0.00 in0.0 mm 0.00 in0.0 mm 0.00 in0.0 mm
12:20 AM 13.4°F-10.3°C 8.2°F-13.2°C 79% 2.8 mph SW4.5 kmh SW 4.7 mph7.6 kmh 30.55 in1034.5 mb 0.00 in0.0 mm 0.00 in0.0 mm 0.00 in0.0 mm
12:10 AM 12.8°F-10.7°C 8.2°F-13.2°C 81% 2.1 mph SW3.4 kmh SW 2.7 mph4.3 kmh 30.55 in1034.5 mb 0.00 in0.0 mm 0.00 in0.0 mm 0.00 in0.0 mm
12:00 AM 12.2°F-11.0°C 8.2°F-13.2°C 84% 1.7 mph SW2.7 kmh SW 3.2 mph5.1 kmh 30.55 in1034.5 mb 0.00 in0.0 mm 0.00 in0.0 mm 0.00 in0.0 mm